Osseo, Minnesota
Current Conditions -  °F | °C
As of 6:53 PM on Sunday 21 Dec 2014 (Local Time) from KMIC Reporting Station
Haze Haze  
Wind Chill: 29°   Ceiling: 400
Heat Index: 37°   Visibility: 2mi
Dew Point: 36°   Wind: 13mph
Humidity: 96%   Direction: 150°SSE
Pressure: 29.72"   Gusts: NA
Location:  45.12°N, 93.4°W
Report Text: KMIC 220053Z 15011KT 2SM BR OVC004 03/02 A2972 RMK AO2 SLP071 T00280022
Loading
Personal Weather Stations






























Interactive Weather Map New forecast layout! Learn more

10-Day Weather Forecast

Advertisements
Track Severe Weather on mobile